sensor_id;sensor_type;location;lat;lon;timestamp;P1;durP1;ratioP1;P2;durP2;ratioP2
60014;SDS011;45867;52.480;6.056;2023-08-17T00:00:47;5.70;;;2.75;;
60014;SDS011;45867;52.480;6.056;2023-08-17T00:03:13;9.85;;;3.03;;
60014;SDS011;45867;52.480;6.056;2023-08-17T00:05:40;8.27;;;2.60;;
60014;SDS011;45867;52.480;6.056;2023-08-17T00:08:06;9.90;;;2.83;;
60014;SDS011;45867;52.480;6.056;2023-08-17T00:10:33;9.38;;;2.40;;
60014;SDS011;45867;52.480;6.056;2023-08-17T00:12:59;5.72;;;2.25;;
60014;SDS011;45867;52.480;6.056;2023-08-17T00:15:25;10.45;;;2.78;;
60014;SDS011;45867;52.480;6.056;2023-08-17T00:17:52;9.95;;;3.20;;
60014;SDS011;45867;52.480;6.056;2023-08-17T00:20:18;7.35;;;2.55;;
60014;SDS011;45867;52.480;6.056;2023-08-17T00:22:45;7.15;;;3.35;;
60014;SDS011;45867;52.480;6.056;2023-08-17T00:25:11;6.93;;;2.85;;
60014;SDS011;45867;52.480;6.056;2023-08-17T00:27:38;7.95;;;2.90;;
60014;SDS011;45867;52.480;6.056;2023-08-17T00:30:04;6.35;;;2.88;;
60014;SDS011;45867;52.480;6.056;2023-08-17T00:32:31;5.65;;;2.67;;
60014;SDS011;45867;52.480;6.056;2023-08-17T00:34:58;7.35;;;2.90;;
60014;SDS011;45867;52.480;6.056;2023-08-17T00:37:24;10.85;;;2.95;;
60014;SDS011;45867;52.480;6.056;2023-08-17T00:39:53;7.57;;;3.38;;
60014;SDS011;45867;52.480;6.056;2023-08-17T00:42:20;9.55;;;2.75;;
60014;SDS011;45867;52.480;6.056;2023-08-17T00:44:49;8.57;;;3.03;;
60014;SDS011;45867;52.480;6.056;2023-08-17T00:47:15;7.68;;;2.75;;
60014;SDS011;45867;52.480;6.056;2023-08-17T00:49:42;12.13;;;3.30;;
60014;SDS011;45867;52.480;6.056;2023-08-17T00:52:08;8.30;;;2.70;;
60014;SDS011;45867;52.480;6.056;2023-08-17T00:54:35;8.32;;;3.10;;
60014;SDS011;45867;52.480;6.056;2023-08-17T00:57:01;8.23;;;2.92;;
60014;SDS011;45867;52.480;6.056;2023-08-17T00:59:28;11.35;;;3.25;;
60014;SDS011;45867;52.480;6.056;2023-08-17T01:02:02;6.55;;;2.90;;
60014;SDS011;45867;52.480;6.056;2023-08-17T01:04:29;11.63;;;2.92;;
60014;SDS011;45867;52.480;6.056;2023-08-17T01:06:55;12.18;;;3.25;;
60014;SDS011;45867;52.480;6.056;2023-08-17T01:09:22;13.85;;;3.00;;
60014;SDS011;45867;52.480;6.056;2023-08-17T01:11:49;6.97;;;3.30;;
60014;SDS011;45867;52.480;6.056;2023-08-17T01:17:00;8.65;;;2.90;;
60014;SDS011;45867;52.480;6.056;2023-08-17T01:19:38;17.45;;;3.25;;
60014;SDS011;45867;52.480;6.056;2023-08-17T01:22:05;10.18;;;3.05;;
60014;SDS011;45867;52.480;6.056;2023-08-17T01:24:34;8.00;;;2.70;;
60014;SDS011;45867;52.480;6.056;2023-08-17T01:27:00;8.75;;;3.10;;
60014;SDS011;45867;52.480;6.056;2023-08-17T01:29:27;12.13;;;2.83;;
60014;SDS011;45867;52.480;6.056;2023-08-17T01:31:57;6.18;;;2.65;;
60014;SDS011;45867;52.480;6.056;2023-08-17T01:34:48;13.82;;;3.45;;
60014;SDS011;45867;52.480;6.056;2023-08-17T01:37:28;9.07;;;2.92;;
60014;SDS011;45867;52.480;6.056;2023-08-17T01:39:57;6.93;;;2.80;;
60014;SDS011;45867;52.480;6.056;2023-08-17T01:42:25;9.02;;;2.55;;
60014;SDS011;45867;52.480;6.056;2023-08-17T01:44:52;9.10;;;2.83;;
60014;SDS011;45867;52.480;6.056;2023-08-17T01:47:21;9.10;;;2.95;;
60014;SDS011;45867;52.480;6.056;2023-08-17T01:49:49;6.82;;;2.88;;
60014;SDS011;45867;52.480;6.056;2023-08-17T01:52:15;8.77;;;3.13;;
60014;SDS011;45867;52.480;6.056;2023-08-17T01:54:42;11.90;;;2.90;;
60014;SDS011;45867;52.480;6.056;2023-08-17T01:57:08;8.82;;;3.00;;
60014;SDS011;45867;52.480;6.056;2023-08-17T01:59:35;9.70;;;3.42;;
60014;SDS011;45867;52.480;6.056;2023-08-17T02:02:01;6.30;;;2.90;;
60014;SDS011;45867;52.480;6.056;2023-08-17T02:04:28;8.32;;;3.35;;
60014;SDS011;45867;52.480;6.056;2023-08-17T02:06:54;8.30;;;3.28;;
60014;SDS011;45867;52.480;6.056;2023-08-17T02:09:24;12.43;;;3.17;;
60014;SDS011;45867;52.480;6.056;2023-08-17T02:11:51;6.50;;;2.80;;
60014;SDS011;45867;52.480;6.056;2023-08-17T02:14:20;16.67;;;3.55;;
60014;SDS011;45867;52.480;6.056;2023-08-17T02:16:50;11.13;;;3.42;;
60014;SDS011;45867;52.480;6.056;2023-08-17T02:19:18;8.30;;;2.88;;
60014;SDS011;45867;52.480;6.056;2023-08-17T02:21:45;10.20;;;3.22;;
60014;SDS011;45867;52.480;6.056;2023-08-17T02:24:11;8.27;;;3.13;;
60014;SDS011;45867;52.480;6.056;2023-08-17T02:26:37;7.57;;;3.10;;
60014;SDS011;45867;52.480;6.056;2023-08-17T02:29:04;6.07;;;2.72;;
60014;SDS011;45867;52.480;6.056;2023-08-17T02:31:31;7.63;;;2.50;;
60014;SDS011;45867;52.480;6.056;2023-08-17T02:33:57;6.78;;;2.60;;
60014;SDS011;45867;52.480;6.056;2023-08-17T02:36:23;10.15;;;3.03;;
60014;SDS011;45867;52.480;6.056;2023-08-17T02:38:50;10.20;;;3.10;;
60014;SDS011;45867;52.480;6.056;2023-08-17T02:41:18;6.63;;;2.60;;
60014;SDS011;45867;52.480;6.056;2023-08-17T02:43:44;10.20;;;2.65;;
60014;SDS011;45867;52.480;6.056;2023-08-17T02:46:11;8.13;;;2.88;;
60014;SDS011;45867;52.480;6.056;2023-08-17T02:48:37;7.35;;;2.72;;
60014;SDS011;45867;52.480;6.056;2023-08-17T02:51:04;8.68;;;2.75;;
60014;SDS011;45867;52.480;6.056;2023-08-17T02:53:30;8.60;;;2.55;;
60014;SDS011;45867;52.480;6.056;2023-08-17T02:55:57;7.18;;;3.08;;
60014;SDS011;45867;52.480;6.056;2023-08-17T02:58:23;8.20;;;3.00;;
60014;SDS011;45867;52.480;6.056;2023-08-17T03:00:53;9.00;;;2.80;;
60014;SDS011;45867;52.480;6.056;2023-08-17T03:03:19;13.13;;;3.38;;
60014;SDS011;45867;52.480;6.056;2023-08-17T03:05:45;6.68;;;2.70;;
60014;SDS011;45867;52.480;6.056;2023-08-17T03:08:12;9.93;;;2.80;;
60014;SDS011;45867;52.480;6.056;2023-08-17T03:10:38;11.30;;;2.90;;
60014;SDS011;45867;52.480;6.056;2023-08-17T03:13:05;7.32;;;2.83;;
60014;SDS011;45867;52.480;6.056;2023-08-17T03:15:31;7.50;;;2.70;;
60014;SDS011;45867;52.480;6.056;2023-08-17T03:17:58;6.43;;;2.53;;
60014;SDS011;45867;52.480;6.056;2023-08-17T03:20:24;6.13;;;2.58;;
60014;SDS011;45867;52.480;6.056;2023-08-17T03:22:53;6.53;;;2.60;;
60014;SDS011;45867;52.480;6.056;2023-08-17T03:25:20;7.43;;;2.67;;
60014;SDS011;45867;52.480;6.056;2023-08-17T03:27:47;6.50;;;2.80;;
60014;SDS011;45867;52.480;6.056;2023-08-17T03:30:14;4.72;;;2.50;;
60014;SDS011;45867;52.480;6.056;2023-08-17T03:32:40;6.47;;;2.88;;
60014;SDS011;45867;52.480;6.056;2023-08-17T03:35:07;8.70;;;2.60;;
60014;SDS011;45867;52.480;6.056;2023-08-17T03:37:34;6.45;;;2.55;;
60014;SDS011;45867;52.480;6.056;2023-08-17T03:40:00;7.80;;;2.53;;
60014;SDS011;45867;52.480;6.056;2023-08-17T03:42:27;7.63;;;2.63;;
60014;SDS011;45867;52.480;6.056;2023-08-17T03:44:53;5.50;;;2.80;;
60014;SDS011;45867;52.480;6.056;2023-08-17T03:47:19;7.60;;;2.50;;
60014;SDS011;45867;52.480;6.056;2023-08-17T03:49:48;9.90;;;2.70;;
60014;SDS011;45867;52.480;6.056;2023-08-17T03:52:14;8.57;;;2.38;;
60014;SDS011;45867;52.480;6.056;2023-08-17T03:54:41;7.70;;;2.50;;
60014;SDS011;45867;52.480;6.056;2023-08-17T03:57:07;13.80;;;2.95;;
60014;SDS011;45867;52.480;6.056;2023-08-17T03:59:34;10.88;;;2.92;;
60014;SDS011;45867;52.480;6.056;2023-08-17T04:02:00;10.20;;;2.90;;
60014;SDS011;45867;52.480;6.056;2023-08-17T04:04:27;5.95;;;2.92;;
60014;SDS011;45867;52.480;6.056;2023-08-17T04:06:53;8.20;;;2.88;;
60014;SDS011;45867;52.480;6.056;2023-08-17T04:09:20;10.55;;;2.65;;
60014;SDS011;45867;52.480;6.056;2023-08-17T04:11:48;7.25;;;2.67;;
60014;SDS011;45867;52.480;6.056;2023-08-17T04:14:14;4.65;;;2.80;;
60014;SDS011;45867;52.480;6.056;2023-08-17T04:16:43;12.32;;;2.85;;
60014;SDS011;45867;52.480;6.056;2023-08-17T04:19:09;12.32;;;2.75;;
60014;SDS011;45867;52.480;6.056;2023-08-17T04:21:35;7.00;;;2.83;;
60014;SDS011;45867;52.480;6.056;2023-08-17T04:24:02;5.50;;;2.63;;
60014;SDS011;45867;52.480;6.056;2023-08-17T04:26:29;9.05;;;2.50;;
60014;SDS011;45867;52.480;6.056;2023-08-17T04:28:55;6.57;;;2.80;;
60014;SDS011;45867;52.480;6.056;2023-08-17T04:31:22;9.18;;;2.65;;
60014;SDS011;45867;52.480;6.056;2023-08-17T04:33:48;7.20;;;2.88;;
60014;SDS011;45867;52.480;6.056;2023-08-17T04:36:15;12.60;;;3.03;;
60014;SDS011;45867;52.480;6.056;2023-08-17T04:38:41;10.23;;;3.05;;
60014;SDS011;45867;52.480;6.056;2023-08-17T04:41:07;8.35;;;3.00;;
60014;SDS011;45867;52.480;6.056;2023-08-17T04:43:34;9.90;;;2.83;;
60014;SDS011;45867;52.480;6.056;2023-08-17T04:46:00;8.30;;;2.95;;
60014;SDS011;45867;52.480;6.056;2023-08-17T04:48:27;8.25;;;2.92;;
60014;SDS011;45867;52.480;6.056;2023-08-17T04:50:53;8.75;;;2.75;;
60014;SDS011;45867;52.480;6.056;2023-08-17T04:53:20;12.40;;;4.30;;
60014;SDS011;45867;52.480;6.056;2023-08-17T04:55:46;9.63;;;3.20;;
60014;SDS011;45867;52.480;6.056;2023-08-17T04:58:13;7.03;;;2.63;;
60014;SDS011;45867;52.480;6.056;2023-08-17T05:00:39;9.32;;;3.67;;
60014;SDS011;45867;52.480;6.056;2023-08-17T05:03:06;14.98;;;3.03;;
60014;SDS011;45867;52.480;6.056;2023-08-17T05:05:42;9.35;;;3.20;;
60014;SDS011;45867;52.480;6.056;2023-08-17T05:08:08;9.20;;;3.30;;
60014;SDS011;45867;52.480;6.056;2023-08-17T05:10:35;5.22;;;2.72;;
60014;SDS011;45867;52.480;6.056;2023-08-17T05:13:01;11.77;;;3.42;;
60014;SDS011;45867;52.480;6.056;2023-08-17T05:15:28;12.75;;;3.35;;
60014;SDS011;45867;52.480;6.056;2023-08-17T05:17:58;12.70;;;3.50;;
60014;SDS011;45867;52.480;6.056;2023-08-17T05:20:24;10.70;;;3.40;;
60014;SDS011;45867;52.480;6.056;2023-08-17T05:22:54;11.40;;;3.42;;
60014;SDS011;45867;52.480;6.056;2023-08-17T05:25:23;7.90;;;3.42;;
60014;SDS011;45867;52.480;6.056;2023-08-17T05:27:49;8.80;;;3.20;;
60014;SDS011;45867;52.480;6.056;2023-08-17T05:30:18;12.50;;;3.53;;
60014;SDS011;45867;52.480;6.056;2023-08-17T05:32:48;8.05;;;2.80;;
60014;SDS011;45867;52.480;6.056;2023-08-17T05:35:20;8.88;;;3.30;;
60014;SDS011;45867;52.480;6.056;2023-08-17T05:37:47;15.25;;;3.70;;
60014;SDS011;45867;52.480;6.056;2023-08-17T05:40:13;8.63;;;3.30;;
60014;SDS011;45867;52.480;6.056;2023-08-17T05:42:40;8.75;;;3.05;;
60014;SDS011;45867;52.480;6.056;2023-08-17T05:45:14;8.15;;;3.15;;
60014;SDS011;45867;52.480;6.056;2023-08-17T05:47:41;8.80;;;2.90;;
60014;SDS011;45867;52.480;6.056;2023-08-17T05:50:07;11.95;;;3.15;;
60014;SDS011;45867;52.480;6.056;2023-08-17T05:52:40;8.43;;;3.30;;
60014;SDS011;45867;52.480;6.056;2023-08-17T05:55:08;10.68;;;3.50;;
60014;SDS011;45867;52.480;6.056;2023-08-17T05:57:35;6.85;;;2.70;;
60014;SDS011;45867;52.480;6.056;2023-08-17T06:00:01;7.68;;;3.10;;
60014;SDS011;45867;52.480;6.056;2023-08-17T06:02:28;7.45;;;2.78;;
60014;SDS011;45867;52.480;6.056;2023-08-17T06:05:03;6.28;;;2.85;;
60014;SDS011;45867;52.480;6.056;2023-08-17T06:07:48;5.82;;;3.05;;
60014;SDS011;45867;52.480;6.056;2023-08-17T06:10:27;7.90;;;3.13;;
60014;SDS011;45867;52.480;6.056;2023-08-17T06:12:54;9.90;;;2.60;;
60014;SDS011;45867;52.480;6.056;2023-08-17T06:15:24;7.60;;;2.90;;
60014;SDS011;45867;52.480;6.056;2023-08-17T06:17:50;12.07;;;3.00;;
60014;SDS011;45867;52.480;6.056;2023-08-17T06:20:24;10.98;;;3.00;;
60014;SDS011;45867;52.480;6.056;2023-08-17T06:22:51;9.07;;;2.80;;
60014;SDS011;45867;52.480;6.056;2023-08-17T06:25:20;10.30;;;3.03;;
60014;SDS011;45867;52.480;6.056;2023-08-17T06:27:50;9.63;;;2.70;;
60014;SDS011;45867;52.480;6.056;2023-08-17T06:30:16;11.05;;;3.20;;
60014;SDS011;45867;52.480;6.056;2023-08-17T06:32:52;9.98;;;2.58;;
60014;SDS011;45867;52.480;6.056;2023-08-17T06:35:19;12.18;;;3.03;;
60014;SDS011;45867;52.480;6.056;2023-08-17T06:37:47;9.70;;;2.50;;
60014;SDS011;45867;52.480;6.056;2023-08-17T06:40:17;8.88;;;2.95;;
60014;SDS011;45867;52.480;6.056;2023-08-17T06:42:43;9.00;;;2.60;;
60014;SDS011;45867;52.480;6.056;2023-08-17T06:45:10;9.70;;;2.30;;
60014;SDS011;45867;52.480;6.056;2023-08-17T06:47:36;6.32;;;2.50;;
60014;SDS011;45867;52.480;6.056;2023-08-17T06:50:05;11.77;;;2.50;;
60014;SDS011;45867;52.480;6.056;2023-08-17T06:52:32;6.43;;;2.38;;
60014;SDS011;45867;52.480;6.056;2023-08-17T06:54:58;6.20;;;2.22;;
60014;SDS011;45867;52.480;6.056;2023-08-17T06:57:25;9.13;;;2.30;;
60014;SDS011;45867;52.480;6.056;2023-08-17T06:59:55;7.22;;;2.33;;
60014;SDS011;45867;52.480;6.056;2023-08-17T07:02:25;7.35;;;2.33;;
60014;SDS011;45867;52.480;6.056;2023-08-17T07:05:04;8.55;;;2.38;;
60014;SDS011;45867;52.480;6.056;2023-08-17T07:07:31;20.42;;;2.60;;
60014;SDS011;45867;52.480;6.056;2023-08-17T07:09:58;7.05;;;2.42;;
60014;SDS011;45867;52.480;6.056;2023-08-17T07:12:26;6.90;;;2.33;;
60014;SDS011;45867;52.480;6.056;2023-08-17T07:14:53;5.72;;;2.28;;
60014;SDS011;45867;52.480;6.056;2023-08-17T07:17:20;10.93;;;2.70;;
60014;SDS011;45867;52.480;6.056;2023-08-17T07:19:49;5.95;;;2.60;;
60014;SDS011;45867;52.480;6.056;2023-08-17T07:22:35;11.50;;;2.92;;
60014;SDS011;45867;52.480;6.056;2023-08-17T07:25:02;6.90;;;2.35;;
60014;SDS011;45867;52.480;6.056;2023-08-17T07:27:29;10.45;;;2.58;;
60014;SDS011;45867;52.480;6.056;2023-08-17T07:29:56;8.48;;;2.38;;
60014;SDS011;45867;52.480;6.056;2023-08-17T07:32:22;6.65;;;2.38;;
60014;SDS011;45867;52.480;6.056;2023-08-17T07:34:49;10.45;;;2.78;;
60014;SDS011;45867;52.480;6.056;2023-08-17T07:37:15;10.50;;;2.78;;
60014;SDS011;45867;52.480;6.056;2023-08-17T07:39:42;9.07;;;2.28;;
60014;SDS011;45867;52.480;6.056;2023-08-17T07:42:08;10.73;;;2.75;;
60014;SDS011;45867;52.480;6.056;2023-08-17T07:44:35;7.43;;;2.63;;
60014;SDS011;45867;52.480;6.056;2023-08-17T07:47:01;11.68;;;2.70;;
60014;SDS011;45867;52.480;6.056;2023-08-17T07:49:28;5.28;;;2.10;;
60014;SDS011;45867;52.480;6.056;2023-08-17T07:52:15;8.45;;;2.70;;
60014;SDS011;45867;52.480;6.056;2023-08-17T07:54:41;11.35;;;3.00;;
60014;SDS011;45867;52.480;6.056;2023-08-17T07:57:07;5.95;;;2.10;;
60014;SDS011;45867;52.480;6.056;2023-08-17T07:59:34;6.63;;;2.28;;
60014;SDS011;45867;52.480;6.056;2023-08-17T08:02:00;9.23;;;2.40;;
60014;SDS011;45867;52.480;6.056;2023-08-17T08:04:27;11.85;;;2.42;;
60014;SDS011;45867;52.480;6.056;2023-08-17T08:06:53;6.05;;;2.50;;
60014;SDS011;45867;52.480;6.056;2023-08-17T08:09:20;5.53;;;2.22;;
60014;SDS011;45867;52.480;6.056;2023-08-17T08:11:49;5.93;;;2.15;;
60014;SDS011;45867;52.480;6.056;2023-08-17T08:14:15;10.88;;;2.20;;
60014;SDS011;45867;52.480;6.056;2023-08-17T08:16:42;6.63;;;2.40;;
60014;SDS011;45867;52.480;6.056;2023-08-17T08:19:08;11.75;;;1.90;;
60014;SDS011;45867;52.480;6.056;2023-08-17T08:21:35;6.38;;;2.13;;
60014;SDS011;45867;52.480;6.056;2023-08-17T08:24:01;5.65;;;2.00;;
60014;SDS011;45867;52.480;6.056;2023-08-17T08:26:28;6.20;;;1.83;;
60014;SDS011;45867;52.480;6.056;2023-08-17T08:28:54;6.25;;;2.30;;
60014;SDS011;45867;52.480;6.056;2023-08-17T08:31:23;5.45;;;2.08;;
60014;SDS011;45867;52.480;6.056;2023-08-17T08:33:50;10.00;;;2.13;;
60014;SDS011;45867;52.480;6.056;2023-08-17T08:36:18;6.22;;;2.08;;
60014;SDS011;45867;52.480;6.056;2023-08-17T08:38:45;13.02;;;2.78;;
60014;SDS011;45867;52.480;6.056;2023-08-17T08:41:11;6.20;;;2.13;;
60014;SDS011;45867;52.480;6.056;2023-08-17T08:43:38;7.63;;;2.10;;
60014;SDS011;45867;52.480;6.056;2023-08-17T08:46:05;7.47;;;2.05;;
60014;SDS011;45867;52.480;6.056;2023-08-17T08:48:31;9.48;;;2.00;;
60014;SDS011;45867;52.480;6.056;2023-08-17T08:51:01;10.88;;;1.92;;
60014;SDS011;45867;52.480;6.056;2023-08-17T08:53:37;12.00;;;2.40;;
60014;SDS011;45867;52.480;6.056;2023-08-17T08:56:04;12.50;;;1.73;;
60014;SDS011;45867;52.480;6.056;2023-08-17T08:58:36;4.60;;;1.92;;
60014;SDS011;45867;52.480;6.056;2023-08-17T09:01:06;5.80;;;1.98;;
60014;SDS011;45867;52.480;6.056;2023-08-17T09:03:34;6.60;;;2.15;;
60014;SDS011;45867;52.480;6.056;2023-08-17T09:06:01;5.65;;;1.90;;
60014;SDS011;45867;52.480;6.056;2023-08-17T09:08:29;9.18;;;2.58;;
60014;SDS011;45867;52.480;6.056;2023-08-17T09:10:57;7.78;;;2.17;;
60014;SDS011;45867;52.480;6.056;2023-08-17T09:13:23;9.05;;;2.47;;
60014;SDS011;45867;52.480;6.056;2023-08-17T09:15:50;10.55;;;2.08;;
60014;SDS011;45867;52.480;6.056;2023-08-17T09:18:18;8.02;;;2.30;;
60014;SDS011;45867;52.480;6.056;2023-08-17T09:20:46;4.80;;;2.00;;
60014;SDS011;45867;52.480;6.056;2023-08-17T09:25:42;11.57;;;2.40;;
60014;SDS011;45867;52.480;6.056;2023-08-17T09:28:14;7.57;;;2.20;;
60014;SDS011;45867;52.480;6.056;2023-08-17T09:31:15;12.00;;;2.30;;
60014;SDS011;45867;52.480;6.056;2023-08-17T09:34:06;7.82;;;2.00;;
60014;SDS011;45867;52.480;6.056;2023-08-17T09:36:32;6.45;;;1.90;;
60014;SDS011;45867;52.480;6.056;2023-08-17T09:39:01;13.25;;;2.78;;
60014;SDS011;45867;52.480;6.056;2023-08-17T09:41:27;13.50;;;2.95;;
60014;SDS011;45867;52.480;6.056;2023-08-17T09:43:54;10.02;;;2.85;;
60014;SDS011;45867;52.480;6.056;2023-08-17T09:46:24;10.70;;;3.10;;
60014;SDS011;45867;52.480;6.056;2023-08-17T09:48:50;7.40;;;2.78;;
60014;SDS011;45867;52.480;6.056;2023-08-17T09:51:20;14.65;;;2.88;;
60014;SDS011;45867;52.480;6.056;2023-08-17T09:57:18;8.73;;;2.95;;
60014;SDS011;45867;52.480;6.056;2023-08-17T09:59:48;7.25;;;2.88;;
60014;SDS011;45867;52.480;6.056;2023-08-17T10:02:18;10.18;;;2.67;;
60014;SDS011;45867;52.480;6.056;2023-08-17T10:04:48;12.75;;;3.40;;
60014;SDS011;45867;52.480;6.056;2023-08-17T10:07:23;12.32;;;2.83;;
60014;SDS011;45867;52.480;6.056;2023-08-17T10:10:03;14.38;;;3.00;;
60014;SDS011;45867;52.480;6.056;2023-08-17T10:12:45;7.72;;;2.80;;
60014;SDS011;45867;52.480;6.056;2023-08-17T10:15:19;8.05;;;2.80;;
60014;SDS011;45867;52.480;6.056;2023-08-17T10:17:58;6.97;;;2.38;;
60014;SDS011;45867;52.480;6.056;2023-08-17T10:20:29;11.10;;;2.75;;
60014;SDS011;45867;52.480;6.056;2023-08-17T10:23:21;11.10;;;3.05;;
60014;SDS011;45867;52.480;6.056;2023-08-17T10:25:48;8.73;;;2.70;;
60014;SDS011;45867;52.480;6.056;2023-08-17T10:28:18;10.38;;;2.70;;
60014;SDS011;45867;52.480;6.056;2023-08-17T10:30:48;6.35;;;2.80;;
60014;SDS011;45867;52.480;6.056;2023-08-17T10:33:14;11.20;;;2.70;;
60014;SDS011;45867;52.480;6.056;2023-08-17T10:35:42;10.93;;;3.00;;
60014;SDS011;45867;52.480;6.056;2023-08-17T10:38:10;6.82;;;2.42;;
60014;SDS011;45867;52.480;6.056;2023-08-17T10:40:37;6.28;;;2.42;;
60014;SDS011;45867;52.480;6.056;2023-08-17T10:43:07;9.00;;;2.92;;
60014;SDS011;45867;52.480;6.056;2023-08-17T10:45:35;5.30;;;2.22;;
60014;SDS011;45867;52.480;6.056;2023-08-17T10:50:37;11.45;;;2.70;;
60014;SDS011;45867;52.480;6.056;2023-08-17T10:53:11;7.18;;;2.40;;
60014;SDS011;45867;52.480;6.056;2023-08-17T10:55:39;11.05;;;3.55;;
60014;SDS011;45867;52.480;6.056;2023-08-17T10:58:07;13.80;;;2.58;;
60014;SDS011;45867;52.480;6.056;2023-08-17T11:00:39;5.82;;;2.88;;
60014;SDS011;45867;52.480;6.056;2023-08-17T11:03:07;10.23;;;3.03;;
60014;SDS011;45867;52.480;6.056;2023-08-17T11:05:45;6.63;;;2.42;;
60014;SDS011;45867;52.480;6.056;2023-08-17T11:13:36;10.05;;;2.78;;
60014;SDS011;45867;52.480;6.056;2023-08-17T11:16:04;7.88;;;3.17;;
60014;SDS011;45867;52.480;6.056;2023-08-17T11:18:32;7.00;;;2.90;;
60014;SDS011;45867;52.480;6.056;2023-08-17T11:24:02;7.82;;;3.38;;
60014;SDS011;45867;52.480;6.056;2023-08-17T11:26:30;5.50;;;2.95;;
60014;SDS011;45867;52.480;6.056;2023-08-17T11:29:30;7.57;;;2.80;;
60014;SDS011;45867;52.480;6.056;2023-08-17T11:31:58;7.60;;;2.70;;
60014;SDS011;45867;52.480;6.056;2023-08-17T11:34:24;6.60;;;3.00;;
60014;SDS011;45867;52.480;6.056;2023-08-17T11:36:56;5.78;;;2.85;;
60014;SDS011;45867;52.480;6.056;2023-08-17T11:39:24;8.27;;;2.80;;
60014;SDS011;45867;52.480;6.056;2023-08-17T11:42:12;4.82;;;2.65;;
60014;SDS011;45867;52.480;6.056;2023-08-17T11:44:45;9.75;;;3.08;;
60014;SDS011;45867;52.480;6.056;2023-08-17T11:47:12;6.35;;;3.10;;
60014;SDS011;45867;52.480;6.056;2023-08-17T11:49:58;7.35;;;2.88;;
60014;SDS011;45867;52.480;6.056;2023-08-17T11:52:44;6.53;;;2.67;;
60014;SDS011;45867;52.480;6.056;2023-08-17T11:55:15;8.00;;;2.80;;
60014;SDS011;45867;52.480;6.056;2023-08-17T11:57:42;6.43;;;2.67;;
60014;SDS011;45867;52.480;6.056;2023-08-17T12:00:09;8.18;;;3.03;;
60014;SDS011;45867;52.480;6.056;2023-08-17T12:02:36;5.78;;;2.75;;
60014;SDS011;45867;52.480;6.056;2023-08-17T12:05:03;8.15;;;2.90;;
60014;SDS011;45867;52.480;6.056;2023-08-17T12:07:35;5.07;;;2.85;;
60014;SDS011;45867;52.480;6.056;2023-08-17T12:10:02;8.32;;;3.25;;
60014;SDS011;45867;52.480;6.056;2023-08-17T12:12:29;10.10;;;3.10;;
60014;SDS011;45867;52.480;6.056;2023-08-17T12:14:57;9.32;;;3.30;;
60014;SDS011;45867;52.480;6.056;2023-08-17T12:17:23;5.90;;;3.05;;
60014;SDS011;45867;52.480;6.056;2023-08-17T12:19:53;5.53;;;2.90;;
60014;SDS011;45867;52.480;6.056;2023-08-17T12:22:23;6.57;;;3.17;;
60014;SDS011;45867;52.480;6.056;2023-08-17T12:24:54;5.10;;;2.97;;
60014;SDS011;45867;52.480;6.056;2023-08-17T12:27:21;7.15;;;2.78;;
60014;SDS011;45867;52.480;6.056;2023-08-17T12:29:53;6.40;;;2.83;;
60014;SDS011;45867;52.480;6.056;2023-08-17T12:32:20;4.95;;;3.10;;
60014;SDS011;45867;52.480;6.056;2023-08-17T12:34:48;6.72;;;2.90;;
60014;SDS011;45867;52.480;6.056;2023-08-17T12:37:18;9.95;;;3.17;;
60014;SDS011;45867;52.480;6.056;2023-08-17T12:42:15;10.90;;;3.00;;
60014;SDS011;45867;52.480;6.056;2023-08-17T12:44:41;7.50;;;3.03;;
60014;SDS011;45867;52.480;6.056;2023-08-17T12:47:08;6.93;;;3.03;;
60014;SDS011;45867;52.480;6.056;2023-08-17T12:49:35;9.73;;;3.40;;
60014;SDS011;45867;52.480;6.056;2023-08-17T12:52:04;8.48;;;3.40;;
60014;SDS011;45867;52.480;6.056;2023-08-17T12:54:31;6.80;;;3.42;;
60014;SDS011;45867;52.480;6.056;2023-08-17T12:56:58;5.47;;;3.30;;
60014;SDS011;45867;52.480;6.056;2023-08-17T12:59:27;6.85;;;3.42;;
60014;SDS011;45867;52.480;6.056;2023-08-17T13:01:56;5.35;;;3.13;;
60014;SDS011;45867;52.480;6.056;2023-08-17T13:04:22;11.15;;;3.17;;
60014;SDS011;45867;52.480;6.056;2023-08-17T13:06:49;8.93;;;3.05;;
60014;SDS011;45867;52.480;6.056;2023-08-17T13:09:15;8.88;;;3.60;;
60014;SDS011;45867;52.480;6.056;2023-08-17T13:11:41;8.00;;;3.53;;
60014;SDS011;45867;52.480;6.056;2023-08-17T13:14:08;3.92;;;2.97;;
60014;SDS011;45867;52.480;6.056;2023-08-17T13:16:34;8.13;;;3.30;;
60014;SDS011;45867;52.480;6.056;2023-08-17T13:19:01;10.10;;;3.15;;
60014;SDS011;45867;52.480;6.056;2023-08-17T13:21:27;9.15;;;3.50;;
60014;SDS011;45867;52.480;6.056;2023-08-17T13:23:54;7.32;;;3.15;;
60014;SDS011;45867;52.480;6.056;2023-08-17T13:26:21;7.72;;;3.67;;
60014;SDS011;45867;52.480;6.056;2023-08-17T13:28:49;7.97;;;3.90;;
60014;SDS011;45867;52.480;6.056;2023-08-17T13:31:15;5.40;;;3.28;;
60014;SDS011;45867;52.480;6.056;2023-08-17T13:33:50;6.28;;;3.22;;
60014;SDS011;45867;52.480;6.056;2023-08-17T13:36:19;10.30;;;3.70;;
60014;SDS011;45867;52.480;6.056;2023-08-17T13:38:45;6.30;;;3.72;;
60014;SDS011;45867;52.480;6.056;2023-08-17T13:41:12;13.45;;;4.07;;
60014;SDS011;45867;52.480;6.056;2023-08-17T13:43:39;5.63;;;3.83;;
60014;SDS011;45867;52.480;6.056;2023-08-17T13:46:06;7.10;;;3.70;;
60014;SDS011;45867;52.480;6.056;2023-08-17T13:48:36;7.75;;;3.83;;
60014;SDS011;45867;52.480;6.056;2023-08-17T13:51:03;6.60;;;3.65;;
60014;SDS011;45867;52.480;6.056;2023-08-17T13:53:29;6.15;;;3.58;;
60014;SDS011;45867;52.480;6.056;2023-08-17T13:55:56;6.95;;;3.72;;
60014;SDS011;45867;52.480;6.056;2023-08-17T13:58:22;6.40;;;3.90;;
60014;SDS011;45867;52.480;6.056;2023-08-17T14:00:49;6.65;;;3.55;;
60014;SDS011;45867;52.480;6.056;2023-08-17T14:03:15;7.90;;;3.90;;
60014;SDS011;45867;52.480;6.056;2023-08-17T14:05:42;7.90;;;4.45;;
60014;SDS011;45867;52.480;6.056;2023-08-17T14:08:08;9.55;;;3.90;;
60014;SDS011;45867;52.480;6.056;2023-08-17T14:10:35;9.05;;;4.28;;
60014;SDS011;45867;52.480;6.056;2023-08-17T14:13:05;5.27;;;3.87;;
60014;SDS011;45867;52.480;6.056;2023-08-17T14:15:32;8.13;;;3.78;;
60014;SDS011;45867;52.480;6.056;2023-08-17T14:17:59;8.77;;;4.00;;
60014;SDS011;45867;52.480;6.056;2023-08-17T14:20:26;10.27;;;4.18;;
60014;SDS011;45867;52.480;6.056;2023-08-17T14:22:52;8.35;;;3.92;;
60014;SDS011;45867;52.480;6.056;2023-08-17T14:25:19;8.20;;;4.00;;
60014;SDS011;45867;52.480;6.056;2023-08-17T14:27:45;7.93;;;3.75;;
60014;SDS011;45867;52.480;6.056;2023-08-17T14:30:12;8.88;;;4.43;;
60014;SDS011;45867;52.480;6.056;2023-08-17T14:32:39;5.97;;;3.65;;
60014;SDS011;45867;52.480;6.056;2023-08-17T14:35:05;8.43;;;4.45;;
60014;SDS011;45867;52.480;6.056;2023-08-17T14:37:37;11.82;;;5.45;;
60014;SDS011;45867;52.480;6.056;2023-08-17T14:40:04;7.57;;;4.30;;
60014;SDS011;45867;52.480;6.056;2023-08-17T14:42:31;6.35;;;4.10;;
60014;SDS011;45867;52.480;6.056;2023-08-17T14:44:57;6.88;;;4.55;;
60014;SDS011;45867;52.480;6.056;2023-08-17T14:47:24;12.05;;;4.68;;
60014;SDS011;45867;52.480;6.056;2023-08-17T14:49:54;7.57;;;4.90;;
60014;SDS011;45867;52.480;6.056;2023-08-17T14:52:40;6.07;;;4.57;;
60014;SDS011;45867;52.480;6.056;2023-08-17T14:55:07;7.38;;;4.50;;
60014;SDS011;45867;52.480;6.056;2023-08-17T14:57:34;6.85;;;4.70;;
60014;SDS011;45867;52.480;6.056;2023-08-17T15:00:00;8.77;;;4.95;;
60014;SDS011;45867;52.480;6.056;2023-08-17T15:02:27;8.23;;;4.88;;
60014;SDS011;45867;52.480;6.056;2023-08-17T15:04:53;6.78;;;4.40;;
60014;SDS011;45867;52.480;6.056;2023-08-17T15:07:20;19.08;;;4.70;;
60014;SDS011;45867;52.480;6.056;2023-08-17T15:13:10;8.13;;;5.07;;
60014;SDS011;45867;52.480;6.056;2023-08-17T15:15:37;7.13;;;4.80;;